sensor_id;sensor_type;location;lat;lon;timestamp;P1;durP1;ratioP1;P2;durP2;ratioP2
78508;SDS011;67802;50.846;7.958;2023-03-14T00:01:50;0.73;;;0.60;;
78508;SDS011;67802;50.846;7.958;2023-03-14T00:04:15;1.25;;;0.60;;
78508;SDS011;67802;50.846;7.958;2023-03-14T00:06:41;1.77;;;0.73;;
78508;SDS011;67802;50.846;7.958;2023-03-14T00:09:06;1.20;;;0.70;;
78508;SDS011;67802;50.846;7.958;2023-03-14T00:11:31;2.95;;;0.80;;
78508;SDS011;67802;50.846;7.958;2023-03-14T00:13:57;1.23;;;0.55;;
78508;SDS011;67802;50.846;7.958;2023-03-14T00:16:22;1.42;;;0.63;;
78508;SDS011;67802;50.846;7.958;2023-03-14T00:18:47;1.13;;;0.60;;
78508;SDS011;67802;50.846;7.958;2023-03-14T00:21:13;1.02;;;0.55;;
78508;SDS011;67802;50.846;7.958;2023-03-14T00:23:39;1.00;;;0.55;;
78508;SDS011;67802;50.846;7.958;2023-03-14T00:26:07;1.17;;;0.57;;
78508;SDS011;67802;50.846;7.958;2023-03-14T00:28:34;1.17;;;0.55;;
78508;SDS011;67802;50.846;7.958;2023-03-14T00:31:03;1.55;;;0.60;;
78508;SDS011;67802;50.846;7.958;2023-03-14T00:33:32;1.55;;;0.73;;
78508;SDS011;67802;50.846;7.958;2023-03-14T00:35:59;0.98;;;0.50;;
78508;SDS011;67802;50.846;7.958;2023-03-14T00:38:27;1.35;;;0.52;;
78508;SDS011;67802;50.846;7.958;2023-03-14T00:40:53;1.05;;;0.60;;
78508;SDS011;67802;50.846;7.958;2023-03-14T00:43:19;1.23;;;0.60;;
78508;SDS011;67802;50.846;7.958;2023-03-14T00:45:49;1.08;;;0.60;;
78508;SDS011;67802;50.846;7.958;2023-03-14T00:48:16;1.05;;;0.52;;
78508;SDS011;67802;50.846;7.958;2023-03-14T00:50:42;0.75;;;0.45;;
78508;SDS011;67802;50.846;7.958;2023-03-14T00:53:07;0.70;;;0.40;;
78508;SDS011;67802;50.846;7.958;2023-03-14T00:55:36;0.90;;;0.60;;
78508;SDS011;67802;50.846;7.958;2023-03-14T00:58:02;1.50;;;0.60;;
78508;SDS011;67802;50.846;7.958;2023-03-14T01:00:27;1.15;;;0.60;;
78508;SDS011;67802;50.846;7.958;2023-03-14T01:02:52;1.83;;;0.65;;
78508;SDS011;67802;50.846;7.958;2023-03-14T01:05:18;0.70;;;0.60;;
78508;SDS011;67802;50.846;7.958;2023-03-14T01:07:43;1.13;;;0.63;;
78508;SDS011;67802;50.846;7.958;2023-03-14T01:10:08;0.90;;;0.60;;
78508;SDS011;67802;50.846;7.958;2023-03-14T01:12:34;0.75;;;0.52;;
78508;SDS011;67802;50.846;7.958;2023-03-14T01:15:00;1.30;;;0.60;;
78508;SDS011;67802;50.846;7.958;2023-03-14T01:17:25;1.17;;;0.60;;
78508;SDS011;67802;50.846;7.958;2023-03-14T01:19:50;1.23;;;0.50;;
78508;SDS011;67802;50.846;7.958;2023-03-14T01:22:16;1.23;;;0.53;;
78508;SDS011;67802;50.846;7.958;2023-03-14T01:24:41;1.45;;;0.50;;
78508;SDS011;67802;50.846;7.958;2023-03-14T01:27:06;0.87;;;0.50;;
78508;SDS011;67802;50.846;7.958;2023-03-14T01:29:31;1.08;;;0.70;;
78508;SDS011;67802;50.846;7.958;2023-03-14T01:31:57;0.97;;;0.40;;
78508;SDS011;67802;50.846;7.958;2023-03-14T01:34:22;1.07;;;0.60;;
78508;SDS011;67802;50.846;7.958;2023-03-14T01:36:47;0.80;;;0.50;;
78508;SDS011;67802;50.846;7.958;2023-03-14T01:39:13;0.80;;;0.67;;
78508;SDS011;67802;50.846;7.958;2023-03-14T01:41:39;0.95;;;0.60;;
78508;SDS011;67802;50.846;7.958;2023-03-14T01:44:05;0.60;;;0.40;;
78508;SDS011;67802;50.846;7.958;2023-03-14T01:46:34;0.55;;;0.47;;
78508;SDS011;67802;50.846;7.958;2023-03-14T01:49:33;1.25;;;0.40;;
78508;SDS011;67802;50.846;7.958;2023-03-14T01:57:12;2.38;;;0.70;;
78508;SDS011;67802;50.846;7.958;2023-03-14T01:59:43;1.10;;;0.50;;
78508;SDS011;67802;50.846;7.958;2023-03-14T02:02:13;1.83;;;0.40;;
78508;SDS011;67802;50.846;7.958;2023-03-14T02:04:40;0.68;;;0.45;;
78508;SDS011;67802;50.846;7.958;2023-03-14T02:07:12;0.80;;;0.40;;
78508;SDS011;67802;50.846;7.958;2023-03-14T02:09:43;0.80;;;0.50;;
78508;SDS011;67802;50.846;7.958;2023-03-14T02:12:09;1.13;;;0.60;;
78508;SDS011;67802;50.846;7.958;2023-03-14T02:14:38;1.23;;;0.60;;
78508;SDS011;67802;50.846;7.958;2023-03-14T02:17:05;1.15;;;0.50;;
78508;SDS011;67802;50.846;7.958;2023-03-14T02:22:10;0.73;;;0.50;;
78508;SDS011;67802;50.846;7.958;2023-03-14T02:24:40;1.35;;;0.50;;
78508;SDS011;67802;50.846;7.958;2023-03-14T02:29:44;1.88;;;0.63;;
78508;SDS011;67802;50.846;7.958;2023-03-14T02:32:14;1.55;;;0.55;;
78508;SDS011;67802;50.846;7.958;2023-03-14T02:34:41;1.38;;;0.52;;
78508;SDS011;67802;50.846;7.958;2023-03-14T02:37:08;0.80;;;0.60;;
78508;SDS011;67802;50.846;7.958;2023-03-14T02:39:36;1.40;;;0.65;;
78508;SDS011;67802;50.846;7.958;2023-03-14T02:42:05;1.17;;;0.43;;
78508;SDS011;67802;50.846;7.958;2023-03-14T02:44:30;0.75;;;0.47;;
78508;SDS011;67802;50.846;7.958;2023-03-14T02:46:55;1.75;;;0.63;;
78508;SDS011;67802;50.846;7.958;2023-03-14T02:49:21;1.33;;;0.60;;
78508;SDS011;67802;50.846;7.958;2023-03-14T02:51:46;1.40;;;0.50;;
78508;SDS011;67802;50.846;7.958;2023-03-14T02:54:12;0.77;;;0.60;;
78508;SDS011;67802;50.846;7.958;2023-03-14T02:56:40;1.05;;;0.50;;
78508;SDS011;67802;50.846;7.958;2023-03-14T02:59:05;1.03;;;0.57;;
78508;SDS011;67802;50.846;7.958;2023-03-14T03:01:30;2.55;;;0.50;;
78508;SDS011;67802;50.846;7.958;2023-03-14T03:03:56;1.80;;;0.50;;
78508;SDS011;67802;50.846;7.958;2023-03-14T03:06:21;0.43;;;0.43;;
78508;SDS011;67802;50.846;7.958;2023-03-14T03:08:47;1.63;;;0.60;;
78508;SDS011;67802;50.846;7.958;2023-03-14T03:11:12;1.55;;;0.55;;
78508;SDS011;67802;50.846;7.958;2023-03-14T03:13:37;1.42;;;0.70;;
78508;SDS011;67802;50.846;7.958;2023-03-14T03:16:03;1.05;;;0.47;;
78508;SDS011;67802;50.846;7.958;2023-03-14T03:18:29;0.88;;;0.45;;
78508;SDS011;67802;50.846;7.958;2023-03-14T03:20:55;0.90;;;0.50;;
78508;SDS011;67802;50.846;7.958;2023-03-14T03:23:20;1.15;;;0.45;;
78508;SDS011;67802;50.846;7.958;2023-03-14T03:25:51;0.75;;;0.40;;
78508;SDS011;67802;50.846;7.958;2023-03-14T03:28:17;1.05;;;0.55;;
78508;SDS011;67802;50.846;7.958;2023-03-14T03:30:42;0.95;;;0.47;;
78508;SDS011;67802;50.846;7.958;2023-03-14T03:33:08;0.70;;;0.50;;
78508;SDS011;67802;50.846;7.958;2023-03-14T03:35:34;1.42;;;0.50;;
78508;SDS011;67802;50.846;7.958;2023-03-14T03:38:00;0.88;;;0.47;;
78508;SDS011;67802;50.846;7.958;2023-03-14T03:40:28;1.40;;;0.45;;
78508;SDS011;67802;50.846;7.958;2023-03-14T03:42:54;2.05;;;0.60;;
78508;SDS011;67802;50.846;7.958;2023-03-14T03:45:19;0.98;;;0.50;;
78508;SDS011;67802;50.846;7.958;2023-03-14T03:47:44;1.08;;;0.60;;
78508;SDS011;67802;50.846;7.958;2023-03-14T03:50:10;1.58;;;0.70;;
78508;SDS011;67802;50.846;7.958;2023-03-14T03:52:35;0.93;;;0.52;;
78508;SDS011;67802;50.846;7.958;2023-03-14T03:55:00;1.20;;;0.60;;
78508;SDS011;67802;50.846;7.958;2023-03-14T03:57:26;1.50;;;0.50;;
78508;SDS011;67802;50.846;7.958;2023-03-14T03:59:51;1.17;;;0.60;;
78508;SDS011;67802;50.846;7.958;2023-03-14T04:02:16;2.25;;;0.52;;
78508;SDS011;67802;50.846;7.958;2023-03-14T04:04:42;0.35;;;0.35;;
78508;SDS011;67802;50.846;7.958;2023-03-14T04:07:07;2.63;;;0.70;;
78508;SDS011;67802;50.846;7.958;2023-03-14T04:09:32;1.00;;;0.60;;
78508;SDS011;67802;50.846;7.958;2023-03-14T04:11:57;1.63;;;0.50;;
78508;SDS011;67802;50.846;7.958;2023-03-14T04:14:23;1.63;;;0.60;;
78508;SDS011;67802;50.846;7.958;2023-03-14T04:16:48;0.90;;;0.50;;
78508;SDS011;67802;50.846;7.958;2023-03-14T04:19:13;1.27;;;0.40;;
78508;SDS011;67802;50.846;7.958;2023-03-14T04:21:39;1.23;;;0.50;;
78508;SDS011;67802;50.846;7.958;2023-03-14T04:24:11;0.70;;;0.50;;
78508;SDS011;67802;50.846;7.958;2023-03-14T04:26:37;1.38;;;0.60;;
78508;SDS011;67802;50.846;7.958;2023-03-14T04:29:02;0.95;;;0.55;;
78508;SDS011;67802;50.846;7.958;2023-03-14T04:31:28;1.55;;;0.57;;
78508;SDS011;67802;50.846;7.958;2023-03-14T04:33:53;1.52;;;0.70;;
78508;SDS011;67802;50.846;7.958;2023-03-14T04:36:18;1.00;;;0.40;;
78508;SDS011;67802;50.846;7.958;2023-03-14T04:38:44;1.17;;;0.52;;
78508;SDS011;67802;50.846;7.958;2023-03-14T04:41:09;1.73;;;0.70;;
78508;SDS011;67802;50.846;7.958;2023-03-14T04:43:34;1.70;;;0.50;;
78508;SDS011;67802;50.846;7.958;2023-03-14T04:45:59;0.98;;;0.50;;
78508;SDS011;67802;50.846;7.958;2023-03-14T04:48:25;1.73;;;0.60;;
78508;SDS011;67802;50.846;7.958;2023-03-14T04:50:51;1.55;;;0.60;;
78508;SDS011;67802;50.846;7.958;2023-03-14T04:53:17;1.05;;;0.45;;
78508;SDS011;67802;50.846;7.958;2023-03-14T04:55:53;1.35;;;0.57;;
78508;SDS011;67802;50.846;7.958;2023-03-14T04:58:20;1.23;;;0.60;;
78508;SDS011;67802;50.846;7.958;2023-03-14T05:00:46;1.45;;;0.60;;
78508;SDS011;67802;50.846;7.958;2023-03-14T05:03:14;1.45;;;0.40;;
78508;SDS011;67802;50.846;7.958;2023-03-14T05:05:40;1.08;;;0.43;;
78508;SDS011;67802;50.846;7.958;2023-03-14T05:08:05;1.40;;;0.38;;
78508;SDS011;67802;50.846;7.958;2023-03-14T05:10:30;0.60;;;0.50;;
78508;SDS011;67802;50.846;7.958;2023-03-14T05:12:56;1.65;;;0.60;;
78508;SDS011;67802;50.846;7.958;2023-03-14T05:15:21;1.70;;;0.40;;
78508;SDS011;67802;50.846;7.958;2023-03-14T05:17:46;2.30;;;0.50;;
78508;SDS011;67802;50.846;7.958;2023-03-14T05:20:13;0.90;;;0.50;;
78508;SDS011;67802;50.846;7.958;2023-03-14T05:22:39;2.05;;;0.63;;
78508;SDS011;67802;50.846;7.958;2023-03-14T05:25:05;1.95;;;0.50;;
78508;SDS011;67802;50.846;7.958;2023-03-14T05:27:31;1.65;;;0.55;;
78508;SDS011;67802;50.846;7.958;2023-03-14T05:29:57;2.00;;;0.50;;
78508;SDS011;67802;50.846;7.958;2023-03-14T05:32:23;1.45;;;0.40;;
78508;SDS011;67802;50.846;7.958;2023-03-14T05:34:48;1.83;;;0.70;;
78508;SDS011;67802;50.846;7.958;2023-03-14T05:37:14;1.42;;;0.50;;
78508;SDS011;67802;50.846;7.958;2023-03-14T05:39:39;1.20;;;0.52;;
78508;SDS011;67802;50.846;7.958;2023-03-14T05:42:04;1.27;;;0.40;;
78508;SDS011;67802;50.846;7.958;2023-03-14T05:44:30;1.60;;;0.40;;
78508;SDS011;67802;50.846;7.958;2023-03-14T05:46:55;1.45;;;0.50;;
78508;SDS011;67802;50.846;7.958;2023-03-14T05:49:20;1.38;;;0.60;;
78508;SDS011;67802;50.846;7.958;2023-03-14T05:51:46;1.35;;;0.50;;
78508;SDS011;67802;50.846;7.958;2023-03-14T05:54:11;1.35;;;0.68;;
78508;SDS011;67802;50.846;7.958;2023-03-14T05:56:36;0.93;;;0.50;;
78508;SDS011;67802;50.846;7.958;2023-03-14T05:59:01;1.08;;;0.43;;
78508;SDS011;67802;50.846;7.958;2023-03-14T06:01:28;1.27;;;0.50;;
78508;SDS011;67802;50.846;7.958;2023-03-14T06:03:54;1.13;;;0.50;;
78508;SDS011;67802;50.846;7.958;2023-03-14T06:06:19;0.57;;;0.40;;
78508;SDS011;67802;50.846;7.958;2023-03-14T06:08:45;1.20;;;0.40;;
78508;SDS011;67802;50.846;7.958;2023-03-14T06:11:10;0.93;;;0.50;;
78508;SDS011;67802;50.846;7.958;2023-03-14T06:13:35;1.35;;;0.50;;
78508;SDS011;67802;50.846;7.958;2023-03-14T06:16:01;1.90;;;0.50;;
78508;SDS011;67802;50.846;7.958;2023-03-14T06:18:26;1.53;;;0.50;;
78508;SDS011;67802;50.846;7.958;2023-03-14T06:20:54;1.25;;;0.50;;
78508;SDS011;67802;50.846;7.958;2023-03-14T06:23:20;1.25;;;0.25;;
78508;SDS011;67802;50.846;7.958;2023-03-14T06:25:46;1.40;;;0.63;;
78508;SDS011;67802;50.846;7.958;2023-03-14T06:28:12;1.48;;;0.50;;
78508;SDS011;67802;50.846;7.958;2023-03-14T06:30:37;1.25;;;0.55;;
78508;SDS011;67802;50.846;7.958;2023-03-14T06:33:02;1.77;;;0.50;;
78508;SDS011;67802;50.846;7.958;2023-03-14T06:35:28;0.73;;;0.40;;
78508;SDS011;67802;50.846;7.958;2023-03-14T06:37:53;0.63;;;0.38;;
78508;SDS011;67802;50.846;7.958;2023-03-14T06:40:18;1.10;;;0.50;;
78508;SDS011;67802;50.846;7.958;2023-03-14T06:42:44;1.63;;;0.52;;
78508;SDS011;67802;50.846;7.958;2023-03-14T06:45:10;2.03;;;0.60;;
78508;SDS011;67802;50.846;7.958;2023-03-14T06:47:35;1.08;;;0.40;;
78508;SDS011;67802;50.846;7.958;2023-03-14T06:50:01;1.08;;;0.40;;
78508;SDS011;67802;50.846;7.958;2023-03-14T06:52:26;0.32;;;0.20;;
78508;SDS011;67802;50.846;7.958;2023-03-14T06:54:52;1.73;;;0.45;;
78508;SDS011;67802;50.846;7.958;2023-03-14T06:57:17;2.03;;;0.30;;
78508;SDS011;67802;50.846;7.958;2023-03-14T06:59:42;0.68;;;0.40;;
78508;SDS011;67802;50.846;7.958;2023-03-14T07:02:10;1.67;;;0.50;;
78508;SDS011;67802;50.846;7.958;2023-03-14T07:04:36;2.53;;;0.50;;
78508;SDS011;67802;50.846;7.958;2023-03-14T07:07:02;1.27;;;0.50;;
78508;SDS011;67802;50.846;7.958;2023-03-14T07:09:27;1.08;;;0.40;;
78508;SDS011;67802;50.846;7.958;2023-03-14T07:11:52;0.68;;;0.50;;
78508;SDS011;67802;50.846;7.958;2023-03-14T07:14:18;0.90;;;0.43;;
78508;SDS011;67802;50.846;7.958;2023-03-14T07:16:43;1.10;;;0.40;;
78508;SDS011;67802;50.846;7.958;2023-03-14T07:19:08;0.47;;;0.40;;
78508;SDS011;67802;50.846;7.958;2023-03-14T07:21:33;1.08;;;0.40;;
78508;SDS011;67802;50.846;7.958;2023-03-14T07:23:59;1.02;;;0.40;;
78508;SDS011;67802;50.846;7.958;2023-03-14T07:26:25;0.57;;;0.40;;
78508;SDS011;67802;50.846;7.958;2023-03-14T07:28:50;1.60;;;0.63;;
78508;SDS011;67802;50.846;7.958;2023-03-14T07:31:15;1.30;;;0.40;;
78508;SDS011;67802;50.846;7.958;2023-03-14T07:33:40;0.90;;;0.40;;
78508;SDS011;67802;50.846;7.958;2023-03-14T07:36:06;1.85;;;0.50;;
78508;SDS011;67802;50.846;7.958;2023-03-14T07:38:32;1.02;;;0.47;;
78508;SDS011;67802;50.846;7.958;2023-03-14T07:41:01;0.75;;;0.30;;
78508;SDS011;67802;50.846;7.958;2023-03-14T07:43:27;1.50;;;0.60;;
78508;SDS011;67802;50.846;7.958;2023-03-14T07:45:53;0.85;;;0.40;;
78508;SDS011;67802;50.846;7.958;2023-03-14T07:48:18;0.77;;;0.30;;
78508;SDS011;67802;50.846;7.958;2023-03-14T07:50:44;0.65;;;0.38;;
78508;SDS011;67802;50.846;7.958;2023-03-14T07:53:13;0.80;;;0.20;;
78508;SDS011;67802;50.846;7.958;2023-03-14T07:55:39;0.30;;;0.30;;
78508;SDS011;67802;50.846;7.958;2023-03-14T07:58:04;0.35;;;0.30;;
78508;SDS011;67802;50.846;7.958;2023-03-14T08:00:30;0.28;;;0.28;;
78508;SDS011;67802;50.846;7.958;2023-03-14T08:02:55;0.25;;;0.20;;
78508;SDS011;67802;50.846;7.958;2023-03-14T08:05:20;0.77;;;0.30;;
78508;SDS011;67802;50.846;7.958;2023-03-14T08:07:46;0.40;;;0.22;;
78508;SDS011;67802;50.846;7.958;2023-03-14T08:10:11;1.02;;;0.40;;
78508;SDS011;67802;50.846;7.958;2023-03-14T08:12:40;0.30;;;0.30;;
78508;SDS011;67802;50.846;7.958;2023-03-14T08:15:06;0.35;;;0.22;;
78508;SDS011;67802;50.846;7.958;2023-03-14T08:17:32;0.68;;;0.20;;
78508;SDS011;67802;50.846;7.958;2023-03-14T08:19:57;0.52;;;0.30;;
78508;SDS011;67802;50.846;7.958;2023-03-14T08:22:22;0.20;;;0.20;;
78508;SDS011;67802;50.846;7.958;2023-03-14T08:24:48;0.40;;;0.25;;
78508;SDS011;67802;50.846;7.958;2023-03-14T08:27:13;0.30;;;0.27;;
78508;SDS011;67802;50.846;7.958;2023-03-14T08:29:39;0.47;;;0.20;;
78508;SDS011;67802;50.846;7.958;2023-03-14T08:32:06;1.98;;;0.30;;
78508;SDS011;67802;50.846;7.958;2023-03-14T08:34:32;0.52;;;0.20;;
78508;SDS011;67802;50.846;7.958;2023-03-14T08:36:58;0.80;;;0.30;;
78508;SDS011;67802;50.846;7.958;2023-03-14T08:39:23;0.35;;;0.30;;
78508;SDS011;67802;50.846;7.958;2023-03-14T08:41:49;0.63;;;0.28;;
78508;SDS011;67802;50.846;7.958;2023-03-14T08:44:15;0.32;;;0.22;;
78508;SDS011;67802;50.846;7.958;2023-03-14T08:46:40;0.20;;;0.20;;
78508;SDS011;67802;50.846;7.958;2023-03-14T08:49:05;0.30;;;0.10;;
78508;SDS011;67802;50.846;7.958;2023-03-14T08:51:31;1.08;;;0.30;;
78508;SDS011;67802;50.846;7.958;2023-03-14T08:53:56;0.28;;;0.20;;
78508;SDS011;67802;50.846;7.958;2023-03-14T08:56:21;0.50;;;0.28;;
78508;SDS011;67802;50.846;7.958;2023-03-14T08:58:47;0.25;;;0.25;;
78508;SDS011;67802;50.846;7.958;2023-03-14T09:01:12;1.17;;;0.47;;
78508;SDS011;67802;50.846;7.958;2023-03-14T09:03:38;0.50;;;0.28;;
78508;SDS011;67802;50.846;7.958;2023-03-14T09:06:04;1.05;;;0.30;;
78508;SDS011;67802;50.846;7.958;2023-03-14T09:08:30;1.65;;;0.20;;
78508;SDS011;67802;50.846;7.958;2023-03-14T09:10:56;0.47;;;0.17;;
78508;SDS011;67802;50.846;7.958;2023-03-14T09:13:21;0.63;;;0.25;;
78508;SDS011;67802;50.846;7.958;2023-03-14T09:15:50;1.08;;;0.40;;
78508;SDS011;67802;50.846;7.958;2023-03-14T09:18:19;0.32;;;0.20;;
78508;SDS011;67802;50.846;7.958;2023-03-14T09:20:45;0.50;;;0.30;;
78508;SDS011;67802;50.846;7.958;2023-03-14T09:23:10;0.38;;;0.30;;
78508;SDS011;67802;50.846;7.958;2023-03-14T09:25:35;0.68;;;0.28;;
78508;SDS011;67802;50.846;7.958;2023-03-14T09:28:01;0.30;;;0.30;;
78508;SDS011;67802;50.846;7.958;2023-03-14T09:30:26;0.25;;;0.25;;
78508;SDS011;67802;50.846;7.958;2023-03-14T09:32:52;0.25;;;0.25;;
78508;SDS011;67802;50.846;7.958;2023-03-14T09:35:17;0.20;;;0.20;;
78508;SDS011;67802;50.846;7.958;2023-03-14T09:37:42;0.47;;;0.20;;
78508;SDS011;67802;50.846;7.958;2023-03-14T09:40:11;0.40;;;0.20;;
78508;SDS011;67802;50.846;7.958;2023-03-14T09:45:06;0.22;;;0.15;;
78508;SDS011;67802;50.846;7.958;2023-03-14T09:47:35;0.98;;;0.20;;
78508;SDS011;67802;50.846;7.958;2023-03-14T09:50:01;0.30;;;0.22;;
78508;SDS011;67802;50.846;7.958;2023-03-14T09:52:27;0.65;;;0.32;;
78508;SDS011;67802;50.846;7.958;2023-03-14T09:57:28;0.20;;;0.10;;
78508;SDS011;67802;50.846;7.958;2023-03-14T09:59:54;1.58;;;0.20;;
78508;SDS011;67802;50.846;7.958;2023-03-14T10:02:27;0.80;;;0.40;;
78508;SDS011;67802;50.846;7.958;2023-03-14T10:04:58;1.27;;;0.20;;
78508;SDS011;67802;50.846;7.958;2023-03-14T10:09:52;0.57;;;0.25;;
78508;SDS011;67802;50.846;7.958;2023-03-14T10:12:18;1.95;;;0.40;;
78508;SDS011;67802;50.846;7.958;2023-03-14T10:14:51;0.63;;;0.35;;
78508;SDS011;67802;50.846;7.958;2023-03-14T10:17:19;0.75;;;0.22;;
78508;SDS011;67802;50.846;7.958;2023-03-14T10:19:55;0.70;;;0.20;;
78508;SDS011;67802;50.846;7.958;2023-03-14T10:22:40;0.32;;;0.25;;
78508;SDS011;67802;50.846;7.958;2023-03-14T10:25:06;0.65;;;0.30;;
78508;SDS011;67802;50.846;7.958;2023-03-14T10:27:48;0.95;;;0.40;;
78508;SDS011;67802;50.846;7.958;2023-03-14T10:30:26;0.88;;;0.30;;
78508;SDS011;67802;50.846;7.958;2023-03-14T10:33:26;0.47;;;0.25;;
78508;SDS011;67802;50.846;7.958;2023-03-14T10:40:57;0.52;;;0.30;;
78508;SDS011;67802;50.846;7.958;2023-03-14T10:43:28;0.30;;;0.30;;
78508;SDS011;67802;50.846;7.958;2023-03-14T10:45:57;0.68;;;0.20;;
78508;SDS011;67802;50.846;7.958;2023-03-14T10:53:42;0.70;;;0.32;;
78508;SDS011;67802;50.846;7.958;2023-03-14T10:56:12;0.30;;;0.30;;
78508;SDS011;67802;50.846;7.958;2023-03-14T10:58:41;0.20;;;0.20;;
78508;SDS011;67802;50.846;7.958;2023-03-14T11:03:43;0.50;;;0.22;;
78508;SDS011;67802;50.846;7.958;2023-03-14T11:09:36;0.20;;;0.20;;
78508;SDS011;67802;50.846;7.958;2023-03-14T11:11:45;0.17;;;0.10;;
78508;SDS011;67802;50.846;7.958;2023-03-14T11:17:24;0.03;;;0.03;;
78508;SDS011;67802;50.846;7.958;2023-03-14T11:22:38;0.93;;;0.20;;
78508;SDS011;67802;50.846;7.958;2023-03-14T11:30:25;0.22;;;0.13;;
78508;SDS011;67802;50.846;7.958;2023-03-14T11:32:58;0.10;;;0.10;;
78508;SDS011;67802;50.846;7.958;2023-03-14T11:35:58;0.32;;;0.20;;
78508;SDS011;67802;50.846;7.958;2023-03-14T11:38:38;0.20;;;0.20;;
78508;SDS011;67802;50.846;7.958;2023-03-14T11:41:15;0.20;;;0.20;;
78508;SDS011;67802;50.846;7.958;2023-03-14T11:43:47;0.10;;;0.10;;
78508;SDS011;67802;50.846;7.958;2023-03-14T11:46:21;2.45;;;0.32;;
78508;SDS011;67802;50.846;7.958;2023-03-14T11:51:36;11.02;;;0.80;;
78508;SDS011;67802;50.846;7.958;2023-03-14T11:59:42;0.20;;;0.20;;
78508;SDS011;67802;50.846;7.958;2023-03-14T12:10:26;0.73;;;0.35;;
78508;SDS011;67802;50.846;7.958;2023-03-14T12:12:52;1.33;;;0.20;;
78508;SDS011;67802;50.846;7.958;2023-03-14T12:15:19;1.20;;;0.30;;
78508;SDS011;67802;50.846;7.958;2023-03-14T12:17:46;1.08;;;0.30;;
78508;SDS011;67802;50.846;7.958;2023-03-14T12:20:20;1.92;;;0.50;;
78508;SDS011;67802;50.846;7.958;2023-03-14T12:22:52;1.63;;;0.30;;
78508;SDS011;67802;50.846;7.958;2023-03-14T12:27:48;1.45;;;0.50;;
78508;SDS011;67802;50.846;7.958;2023-03-14T12:30:21;3.25;;;0.30;;
78508;SDS011;67802;50.846;7.958;2023-03-14T12:35:36;0.43;;;0.30;;
78508;SDS011;67802;50.846;7.958;2023-03-14T12:38:03;0.88;;;0.40;;
78508;SDS011;67802;50.846;7.958;2023-03-14T12:40:33;1.13;;;0.32;;
78508;SDS011;67802;50.846;7.958;2023-03-14T12:43:04;0.20;;;0.20;;
78508;SDS011;67802;50.846;7.958;2023-03-14T12:48:32;0.32;;;0.20;;
78508;SDS011;67802;50.846;7.958;2023-03-14T12:51:05;1.77;;;0.50;;
78508;SDS011;67802;50.846;7.958;2023-03-14T12:59:12;3.30;;;0.60;;
78508;SDS011;67802;50.846;7.958;2023-03-14T13:01:46;1.17;;;0.43;;
78508;SDS011;67802;50.846;7.958;2023-03-14T13:04:18;1.55;;;0.60;;
78508;SDS011;67802;50.846;7.958;2023-03-14T13:06:51;0.30;;;0.28;;
78508;SDS011;67802;50.846;7.958;2023-03-14T13:11:50;0.95;;;0.40;;
78508;SDS011;67802;50.846;7.958;2023-03-14T13:14:17;1.15;;;0.20;;
78508;SDS011;67802;50.846;7.958;2023-03-14T13:16:44;0.45;;;0.30;;
78508;SDS011;67802;50.846;7.958;2023-03-14T13:19:13;0.70;;;0.30;;
78508;SDS011;67802;50.846;7.958;2023-03-14T13:37:29;2.53;;;0.32;;
78508;SDS011;67802;50.846;7.958;2023-03-14T13:39:55;0.20;;;0.20;;
78508;SDS011;67802;50.846;7.958;2023-03-14T13:42:26;1.25;;;0.55;;
78508;SDS011;67802;50.846;7.958;2023-03-14T13:44:53;1.65;;;0.30;;
78508;SDS011;67802;50.846;7.958;2023-03-14T13:47:21;1.75;;;0.50;;
78508;SDS011;67802;50.846;7.958;2023-03-14T13:49:49;1.13;;;0.40;;
78508;SDS011;67802;50.846;7.958;2023-03-14T13:52:27;0.38;;;0.30;;
78508;SDS011;67802;50.846;7.958;2023-03-14T13:54:55;3.00;;;0.47;;
78508;SDS011;67802;50.846;7.958;2023-03-14T13:57:22;1.40;;;0.40;;
78508;SDS011;67802;50.846;7.958;2023-03-14T14:00:01;1.02;;;0.40;;
78508;SDS011;67802;50.846;7.958;2023-03-14T14:02:35;2.78;;;0.60;;
78508;SDS011;67802;50.846;7.958;2023-03-14T14:05:02;1.42;;;0.43;;
78508;SDS011;67802;50.846;7.958;2023-03-14T14:07:29;7.78;;;0.40;;
78508;SDS011;67802;50.846;7.958;2023-03-14T14:09:54;1.35;;;0.50;;
78508;SDS011;67802;50.846;7.958;2023-03-14T14:12:30;1.08;;;0.43;;
78508;SDS011;67802;50.846;7.958;2023-03-14T14:15:04;1.75;;;0.50;;
78508;SDS011;67802;50.846;7.958;2023-03-14T14:17:38;6.13;;;0.63;;
78508;SDS011;67802;50.846;7.958;2023-03-14T14:23:09;1.45;;;0.30;;
78508;SDS011;67802;50.846;7.958;2023-03-14T14:25:37;2.22;;;0.63;;
78508;SDS011;67802;50.846;7.958;2023-03-14T14:33:30;1.85;;;0.52;;
78508;SDS011;67802;50.846;7.958;2023-03-14T14:41:16;0.28;;;0.28;;
78508;SDS011;67802;50.846;7.958;2023-03-14T14:43:42;0.30;;;0.30;;
78508;SDS011;67802;50.846;7.958;2023-03-14T14:46:07;1.05;;;0.40;;
78508;SDS011;67802;50.846;7.958;2023-03-14T14:48:38;0.65;;;0.25;;
78508;SDS011;67802;50.846;7.958;2023-03-14T14:51:04;0.65;;;0.40;;
78508;SDS011;67802;50.846;7.958;2023-03-14T14:53:42;1.15;;;0.30;;
78508;SDS011;67802;50.846;7.958;2023-03-14T14:56:24;0.65;;;0.30;;
78508;SDS011;67802;50.846;7.958;2023-03-14T14:58:55;0.22;;;0.22;;
78508;SDS011;67802;50.846;7.958;2023-03-14T15:01:25;0.73;;;0.30;;
78508;SDS011;67802;50.846;7.958;2023-03-14T15:03:55;1.55;;;0.35;;
78508;SDS011;67802;50.846;7.958;2023-03-14T15:06:21;1.63;;;0.45;;
78508;SDS011;67802;50.846;7.958;2023-03-14T15:08:49;0.55;;;0.40;;
78508;SDS011;67802;50.846;7.958;2023-03-14T15:11:18;0.60;;;0.45;;
78508;SDS011;67802;50.846;7.958;2023-03-14T15:13:47;0.63;;;0.40;;
78508;SDS011;67802;50.846;7.958;2023-03-14T15:16:12;0.75;;;0.40;;
78508;SDS011;67802;50.846;7.958;2023-03-14T15:18:40;2.60;;;0.40;;
78508;SDS011;67802;50.846;7.958;2023-03-14T15:21:05;0.30;;;0.30;;
78508;SDS011;67802;50.846;7.958;2023-03-14T15:23:31;1.27;;;0.30;;
78508;SDS011;67802;50.846;7.958;2023-03-14T15:25:56;0.45;;;0.40;;
78508;SDS011;67802;50.846;7.958;2023-03-14T15:28:22;0.60;;;0.20;;
78508;SDS011;67802;50.846;7.958;2023-03-14T15:30:53;0.28;;;0.28;;
78508;SDS011;67802;50.846;7.958;2023-03-14T15:33:20;0.57;;;0.40;;
78508;SDS011;67802;50.846;7.958;2023-03-14T15:35:47;0.80;;;0.25;;
78508;SDS011;67802;50.846;7.958;2023-03-14T15:38:14;1.00;;;0.30;;
78508;SDS011;67802;50.846;7.958;2023-03-14T15:40:42;0.40;;;0.30;;
78508;SDS011;67802;50.846;7.958;2023-03-14T15:43:08;0.65;;;0.30;;
78508;SDS011;67802;50.846;7.958;2023-03-14T15:45:33;0.38;;;0.30;;
78508;SDS011;67802;50.846;7.958;2023-03-14T15:47:59;0.85;;;0.52;;
78508;SDS011;67802;50.846;7.958;2023-03-14T15:50:25;0.95;;;0.40;;
78508;SDS011;67802;50.846;7.958;2023-03-14T15:52:51;1.08;;;0.52;;
78508;SDS011;67802;50.846;7.958;2023-03-14T15:55:16;0.85;;;0.50;;
78508;SDS011;67802;50.846;7.958;2023-03-14T15:57:42;0.73;;;0.50;;
78508;SDS011;67802;50.846;7.958;2023-03-14T16:00:12;0.82;;;0.40;;
78508;SDS011;67802;50.846;7.958;2023-03-14T16:02:40;1.63;;;0.38;;
78508;SDS011;67802;50.846;7.958;2023-03-14T16:05:07;1.35;;;0.50;;
78508;SDS011;67802;50.846;7.958;2023-03-14T16:07:34;0.88;;;0.47;;
78508;SDS011;67802;50.846;7.958;2023-03-14T16:10:00;1.33;;;0.60;;
78508;SDS011;67802;50.846;7.958;2023-03-14T16:12:25;3.25;;;0.50;;
78508;SDS011;67802;50.846;7.958;2023-03-14T16:14:50;0.45;;;0.40;;
78508;SDS011;67802;50.846;7.958;2023-03-14T16:17:15;0.90;;;0.40;;
78508;SDS011;67802;50.846;7.958;2023-03-14T16:19:41;0.47;;;0.43;;
78508;SDS011;67802;50.846;7.958;2023-03-14T16:22:06;8.95;;;0.52;;
78508;SDS011;67802;50.846;7.958;2023-03-14T16:24:31;0.65;;;0.43;;
78508;SDS011;67802;50.846;7.958;2023-03-14T16:26:57;0.40;;;0.40;;
78508;SDS011;67802;50.846;7.958;2023-03-14T16:29:22;2.72;;;0.47;;
78508;SDS011;67802;50.846;7.958;2023-03-14T16:31:47;0.82;;;0.40;;
78508;SDS011;67802;50.846;7.958;2023-03-14T16:34:13;1.60;;;0.60;;
78508;SDS011;67802;50.846;7.958;2023-03-14T16:36:38;1.33;;;0.35;;